sensor_id;sensor_type;location;lat;lon;timestamp;pressure;altitude;pressure_sealevel;temperature;humidity
44198;BME280;30157;55.512;37.764;2023-01-31T00:00:19;98044.34;;;-3.82;90.75
44198;BME280;30157;55.512;37.764;2023-01-31T00:02:45;98146.91;;;-3.34;90.69
44198;BME280;30157;55.512;37.764;2023-01-31T00:05:11;98129.09;;;-3.35;90.73
44198;BME280;30157;55.512;37.764;2023-01-31T00:07:37;98134.91;;;-3.41;91.76
44198;BME280;30157;55.512;37.764;2023-01-31T00:10:03;98115.13;;;-3.55;92.40
44198;BME280;30157;55.512;37.764;2023-01-31T00:12:29;98094.66;;;-3.62;92.48
44198;BME280;30157;55.512;37.764;2023-01-31T00:14:54;98118.72;;;-3.46;92.20
44198;BME280;30157;55.512;37.764;2023-01-31T00:17:20;98092.88;;;-3.66;92.02
44198;BME280;30157;55.512;37.764;2023-01-31T00:19:46;98131.56;;;-3.40;92.47
44198;BME280;30157;55.512;37.764;2023-01-31T00:22:11;98068.75;;;-3.85;92.74
44198;BME280;30157;55.512;37.764;2023-01-31T00:24:37;98123.88;;;-3.43;92.77
44198;BME280;30157;55.512;37.764;2023-01-31T00:27:02;98133.16;;;-3.44;92.16
44198;BME280;30157;55.512;37.764;2023-01-31T00:29:28;98084.38;;;-3.68;92.79
44198;BME280;30157;55.512;37.764;2023-01-31T00:31:54;98116.69;;;-3.60;92.41
44198;BME280;30157;55.512;37.764;2023-01-31T00:34:19;97856.44;;;-5.04;92.53
44198;BME280;30157;55.512;37.764;2023-01-31T00:36:45;98026.94;;;-4.01;91.90
44198;BME280;30157;55.512;37.764;2023-01-31T00:39:11;98131.53;;;-3.42;91.58
44198;BME280;30157;55.512;37.764;2023-01-31T00:41:37;98119.50;;;-3.49;91.38
44198;BME280;30157;55.512;37.764;2023-01-31T00:44:04;97931.78;;;-4.62;91.49
44198;BME280;30157;55.512;37.764;2023-01-31T00:46:30;98108.31;;;-3.57;91.09
44198;BME280;30157;55.512;37.764;2023-01-31T00:48:56;98144.25;;;-3.39;91.01
44198;BME280;30157;55.512;37.764;2023-01-31T00:51:23;98127.34;;;-3.38;91.17
44198;BME280;30157;55.512;37.764;2023-01-31T00:53:49;98113.56;;;-3.49;91.03
44198;BME280;30157;55.512;37.764;2023-01-31T00:56:18;98050.13;;;-3.88;90.40
44198;BME280;30157;55.512;37.764;2023-01-31T00:58:44;98109.34;;;-3.49;90.27
44198;BME280;30157;55.512;37.764;2023-01-31T01:01:13;98026.06;;;-4.03;90.04
44198;BME280;30157;55.512;37.764;2023-01-31T01:03:40;98146.03;;;-3.36;90.31
44198;BME280;30157;55.512;37.764;2023-01-31T01:06:07;98173.09;;;-3.36;90.26
44198;BME280;30157;55.512;37.764;2023-01-31T01:08:33;98151.16;;;-3.33;90.27
44198;BME280;30157;55.512;37.764;2023-01-31T01:11:17;98140.03;;;-3.38;90.12
44198;BME280;30157;55.512;37.764;2023-01-31T01:13:43;98163.97;;;-3.28;90.19
44198;BME280;30157;55.512;37.764;2023-01-31T01:16:16;98130.41;;;-3.51;90.54
44198;BME280;30157;55.512;37.764;2023-01-31T01:18:45;98169.66;;;-3.37;90.64
44198;BME280;30157;55.512;37.764;2023-01-31T01:21:18;98146.78;;;-3.40;90.49
44198;BME280;30157;55.512;37.764;2023-01-31T01:23:45;98044.72;;;-4.00;90.13
44198;BME280;30157;55.512;37.764;2023-01-31T01:26:21;98138.94;;;-3.49;89.67
44198;BME280;30157;55.512;37.764;2023-01-31T01:28:48;98131.28;;;-3.51;89.66
44198;BME280;30157;55.512;37.764;2023-01-31T01:31:15;98131.25;;;-3.52;89.83
44198;BME280;30157;55.512;37.764;2023-01-31T01:33:41;98119.38;;;-3.53;89.31
44198;BME280;30157;55.512;37.764;2023-01-31T01:36:09;98133.16;;;-3.44;89.15
44198;BME280;30157;55.512;37.764;2023-01-31T01:38:39;98169.03;;;-3.28;89.40
44198;BME280;30157;55.512;37.764;2023-01-31T01:41:06;98134.81;;;-3.46;88.88
44198;BME280;30157;55.512;37.764;2023-01-31T01:43:46;98140.97;;;-3.34;89.34
44198;BME280;30157;55.512;37.764;2023-01-31T01:46:16;98141.78;;;-3.35;88.99
44198;BME280;30157;55.512;37.764;2023-01-31T01:48:45;98165.75;;;-3.24;88.91
44198;BME280;30157;55.512;37.764;2023-01-31T01:51:14;98039.75;;;-3.97;88.84
44198;BME280;30157;55.512;37.764;2023-01-31T01:53:46;98119.63;;;-3.44;88.83
44198;BME280;30157;55.512;37.764;2023-01-31T01:56:20;98037.25;;;-3.95;88.64
44198;BME280;30157;55.512;37.764;2023-01-31T01:59:07;98125.56;;;-3.42;88.48
44198;BME280;30157;55.512;37.764;2023-01-31T02:01:36;98034.69;;;-3.97;88.76
44198;BME280;30157;55.512;37.764;2023-01-31T02:04:10;98048.34;;;-3.92;88.11
44198;BME280;30157;55.512;37.764;2023-01-31T02:06:38;98057.00;;;-3.82;88.27
44198;BME280;30157;55.512;37.764;2023-01-31T02:09:06;98161.72;;;-3.16;88.09
44198;BME280;30157;55.512;37.764;2023-01-31T02:11:36;98158.41;;;-3.13;87.86
44198;BME280;30157;55.512;37.764;2023-01-31T02:14:06;98158.44;;;-3.12;88.09
44198;BME280;30157;55.512;37.764;2023-01-31T02:16:33;98158.41;;;-3.13;87.91
44198;BME280;30157;55.512;37.764;2023-01-31T02:18:59;98161.78;;;-3.13;87.78
44198;BME280;30157;55.512;37.764;2023-01-31T02:21:51;98162.75;;;-3.08;87.64
44198;BME280;30157;55.512;37.764;2023-01-31T02:24:42;98057.19;;;-3.74;87.35
44198;BME280;30157;55.512;37.764;2023-01-31T02:33:13;98155.09;;;-3.09;87.81
44198;BME280;30157;55.512;37.764;2023-01-31T02:44:20;98052.88;;;-3.78;89.06
44198;BME280;30157;55.512;37.764;2023-01-31T02:50:08;98150.44;;;-3.27;88.25
44198;BME280;30157;55.512;37.764;2023-01-31T02:52:49;98144.78;;;-3.15;88.60
44198;BME280;30157;55.512;37.764;2023-01-31T02:55:31;98164.28;;;-3.14;88.48
44198;BME280;30157;55.512;37.764;2023-01-31T02:58:18;98011.97;;;-3.92;88.36
44198;BME280;30157;55.512;37.764;2023-01-31T03:00:45;98142.97;;;-3.21;88.13
44198;BME280;30157;55.512;37.764;2023-01-31T03:03:18;98153.34;;;-3.12;88.04
44198;BME280;30157;55.512;37.764;2023-01-31T03:14:32;98150.81;;;-3.12;88.29
44198;BME280;30157;55.512;37.764;2023-01-31T03:17:05;98147.53;;;-3.08;88.23
44198;BME280;30157;55.512;37.764;2023-01-31T03:20:07;98142.22;;;-3.17;88.05
44198;BME280;30157;55.512;37.764;2023-01-31T03:22:40;98031.84;;;-3.74;88.15
44198;BME280;30157;55.512;37.764;2023-01-31T03:25:11;98150.88;;;-3.09;88.25
44198;BME280;30157;55.512;37.764;2023-01-31T03:27:43;98153.34;;;-3.12;88.76
44198;BME280;30157;55.512;37.764;2023-01-31T03:30:19;98147.38;;;-3.14;88.64
44198;BME280;30157;55.512;37.764;2023-01-31T03:33:09;98136.16;;;-3.24;88.99
44198;BME280;30157;55.512;37.764;2023-01-31T03:35:38;98106.22;;;-3.39;88.60
44198;BME280;30157;55.512;37.764;2023-01-31T03:38:10;98155.75;;;-3.16;88.58
44198;BME280;30157;55.512;37.764;2023-01-31T03:40:55;98088.81;;;-3.58;88.83
44198;BME280;30157;55.512;37.764;2023-01-31T03:43:44;98169.44;;;-3.11;89.08
44198;BME280;30157;55.512;37.764;2023-01-31T03:46:19;98146.38;;;-3.21;89.49
44198;BME280;30157;55.512;37.764;2023-01-31T03:48:50;98170.19;;;-3.15;89.33
44198;BME280;30157;55.512;37.764;2023-01-31T03:51:22;98178.69;;;-3.13;89.50
44198;BME280;30157;55.512;37.764;2023-01-31T03:53:57;98128.06;;;-3.44;90.67
44198;BME280;30157;55.512;37.764;2023-01-31T03:56:36;98072.69;;;-3.97;90.60
44198;BME280;30157;55.512;37.764;2023-01-31T03:59:13;98015.31;;;-4.28;91.15
44198;BME280;30157;55.512;37.764;2023-01-31T04:01:45;98203.09;;;-3.18;91.80
44198;BME280;30157;55.512;37.764;2023-01-31T04:04:17;98188.84;;;-3.13;92.46
44198;BME280;30157;55.512;37.764;2023-01-31T04:06:46;98172.41;;;-3.29;91.70
44198;BME280;30157;55.512;37.764;2023-01-31T04:09:12;98063.38;;;-3.98;92.01
44198;BME280;30157;55.512;37.764;2023-01-31T04:11:39;98159.53;;;-3.37;92.35
44198;BME280;30157;55.512;37.764;2023-01-31T04:14:07;98126.06;;;-3.57;92.32
44198;BME280;30157;55.512;37.764;2023-01-31T04:16:34;98153.56;;;-3.39;92.41
44198;BME280;30157;55.512;37.764;2023-01-31T04:18:59;98130.31;;;-3.56;92.44
44198;BME280;30157;55.512;37.764;2023-01-31T04:21:25;98174.78;;;-3.35;93.03
44198;BME280;30157;55.512;37.764;2023-01-31T04:23:51;98141.38;;;-3.54;92.53
44198;BME280;30157;55.512;37.764;2023-01-31T04:26:17;98104.50;;;-3.75;92.32
44198;BME280;30157;55.512;37.764;2023-01-31T04:28:42;98058.91;;;-4.07;92.81
44198;BME280;30157;55.512;37.764;2023-01-31T04:31:08;98184.16;;;-3.33;92.63
44198;BME280;30157;55.512;37.764;2023-01-31T04:33:34;98208.06;;;-3.23;92.53
44198;BME280;30157;55.512;37.764;2023-01-31T04:36:00;98104.28;;;-3.84;91.99
44198;BME280;30157;55.512;37.764;2023-01-31T04:38:25;98197.63;;;-3.35;92.50
44198;BME280;30157;55.512;37.764;2023-01-31T04:40:51;98047.31;;;-4.32;91.97
44198;BME280;30157;55.512;37.764;2023-01-31T04:43:16;98176.22;;;-3.47;91.79
44198;BME280;30157;55.512;37.764;2023-01-31T04:45:42;98206.19;;;-3.30;91.31
44198;BME280;30157;55.512;37.764;2023-01-31T04:48:08;98068.91;;;-4.13;91.55
44198;BME280;30157;55.512;37.764;2023-01-31T04:50:33;98199.34;;;-3.34;91.62
44198;BME280;30157;55.512;37.764;2023-01-31T04:52:59;98232.00;;;-3.13;91.55
44198;BME280;30157;55.512;37.764;2023-01-31T04:55:25;98232.78;;;-3.16;91.21
44198;BME280;30157;55.512;37.764;2023-01-31T04:57:51;98204.56;;;-3.28;91.71
44198;BME280;30157;55.512;37.764;2023-01-31T05:00:18;98226.03;;;-3.14;91.20
44198;BME280;30157;55.512;37.764;2023-01-31T05:02:44;98193.53;;;-3.29;90.83
44198;BME280;30157;55.512;37.764;2023-01-31T05:05:10;98184.91;;;-3.37;90.58
44198;BME280;30157;55.512;37.764;2023-01-31T05:07:38;98239.63;;;-3.13;90.64
44198;BME280;30157;55.512;37.764;2023-01-31T05:10:04;98222.59;;;-3.17;90.03
44198;BME280;30157;55.512;37.764;2023-01-31T05:12:30;98228.69;;;-3.11;90.03
44198;BME280;30157;55.512;37.764;2023-01-31T05:14:56;98227.03;;;-3.09;90.02
44198;BME280;30157;55.512;37.764;2023-01-31T05:17:21;98115.53;;;-3.74;89.72
44198;BME280;30157;55.512;37.764;2023-01-31T05:19:50;98234.59;;;-3.10;89.65
44198;BME280;30157;55.512;37.764;2023-01-31T05:22:15;98161.56;;;-3.57;89.39
44198;BME280;30157;55.512;37.764;2023-01-31T05:24:42;98144.38;;;-3.69;89.58
44198;BME280;30157;55.512;37.764;2023-01-31T05:27:08;98129.81;;;-3.76;89.36
44198;BME280;30157;55.512;37.764;2023-01-31T05:29:34;98233.75;;;-3.11;89.37
44198;BME280;30157;55.512;37.764;2023-01-31T05:32:01;98237.22;;;-3.07;90.02
44198;BME280;30157;55.512;37.764;2023-01-31T05:34:27;98235.63;;;-3.04;90.35
44198;BME280;30157;55.512;37.764;2023-01-31T05:36:55;98178.75;;;-3.47;89.73
44198;BME280;30157;55.512;37.764;2023-01-31T05:39:21;98228.78;;;-3.06;89.57
44198;BME280;30157;55.512;37.764;2023-01-31T05:41:47;98212.34;;;-3.21;89.61
44198;BME280;30157;55.512;37.764;2023-01-31T05:44:13;98232.16;;;-3.06;89.89
44198;BME280;30157;55.512;37.764;2023-01-31T05:46:40;98243.00;;;-3.13;89.93
44198;BME280;30157;55.512;37.764;2023-01-31T05:49:06;98128.28;;;-3.71;89.31
44198;BME280;30157;55.512;37.764;2023-01-31T05:51:32;98228.69;;;-3.11;89.37
44198;BME280;30157;55.512;37.764;2023-01-31T05:53:57;98222.72;;;-3.11;89.53
44198;BME280;30157;55.512;37.764;2023-01-31T05:56:23;98215.75;;;-3.20;89.78
44198;BME280;30157;55.512;37.764;2023-01-31T05:58:49;98140.13;;;-3.70;89.18
44198;BME280;30157;55.512;37.764;2023-01-31T06:01:20;98216.41;;;-3.27;89.38
44198;BME280;30157;55.512;37.764;2023-01-31T06:03:46;98111.81;;;-3.87;89.19
44198;BME280;30157;55.512;37.764;2023-01-31T06:06:12;98220.81;;;-3.22;89.49
44198;BME280;30157;55.512;37.764;2023-01-31T06:08:38;98225.13;;;-3.17;89.36
44198;BME280;30157;55.512;37.764;2023-01-31T06:11:06;98256.88;;;-3.00;89.05
44198;BME280;30157;55.512;37.764;2023-01-31T06:13:32;98181.28;;;-3.47;89.24
44198;BME280;30157;55.512;37.764;2023-01-31T06:15:58;98266.19;;;-2.99;89.29
44198;BME280;30157;55.512;37.764;2023-01-31T06:18:24;98264.50;;;-2.98;89.35
44198;BME280;30157;55.512;37.764;2023-01-31T06:20:51;98263.63;;;-2.99;89.17
44198;BME280;30157;55.512;37.764;2023-01-31T06:23:18;98281.50;;;-2.96;89.35
44198;BME280;30157;55.512;37.764;2023-01-31T06:25:47;98259.41;;;-3.00;89.21
44198;BME280;30157;55.512;37.764;2023-01-31T06:28:13;98225.88;;;-3.22;89.25
44198;BME280;30157;55.512;37.764;2023-01-31T06:30:38;98126.34;;;-3.80;88.87
44198;BME280;30157;55.512;37.764;2023-01-31T06:33:04;98121.13;;;-3.86;89.05
44198;BME280;30157;55.512;37.764;2023-01-31T06:35:29;98270.56;;;-2.93;89.01
44198;BME280;30157;55.512;37.764;2023-01-31T06:37:55;98280.97;;;-2.82;88.71
44198;BME280;30157;55.512;37.764;2023-01-31T06:40:21;98190.97;;;-3.30;88.27
44198;BME280;30157;55.512;37.764;2023-01-31T06:42:46;98143.53;;;-3.68;88.47
44198;BME280;30157;55.512;37.764;2023-01-31T06:45:12;98161.59;;;-3.56;88.09
44198;BME280;30157;55.512;37.764;2023-01-31T06:47:38;98236.97;;;-3.16;88.35
44198;BME280;30157;55.512;37.764;2023-01-31T06:50:04;98173.41;;;-3.58;87.98
44198;BME280;30157;55.512;37.764;2023-01-31T06:52:29;98271.22;;;-3.00;88.50
44198;BME280;30157;55.512;37.764;2023-01-31T06:54:55;98258.44;;;-3.05;88.36
44198;BME280;30157;55.512;37.764;2023-01-31T06:57:21;98274.66;;;-2.98;88.24
44198;BME280;30157;55.512;37.764;2023-01-31T06:59:46;98317.53;;;-2.76;88.13
44198;BME280;30157;55.512;37.764;2023-01-31T07:02:12;98305.84;;;-2.69;87.98
44198;BME280;30157;55.512;37.764;2023-01-31T07:04:38;98297.19;;;-2.77;87.63
44198;BME280;30157;55.512;37.764;2023-01-31T07:07:04;98325.13;;;-2.77;88.01
44198;BME280;30157;55.512;37.764;2023-01-31T07:09:30;98284.09;;;-2.93;87.95
44198;BME280;30157;55.512;37.764;2023-01-31T07:11:55;98315.88;;;-2.74;87.62
44198;BME280;30157;55.512;37.764;2023-01-31T07:14:21;98298.78;;;-2.81;87.87
44198;BME280;30157;55.512;37.764;2023-01-31T07:16:47;98333.81;;;-2.67;87.57
44198;BME280;30157;55.512;37.764;2023-01-31T07:19:12;98211.03;;;-3.40;87.58
44198;BME280;30157;55.512;37.764;2023-01-31T07:21:38;98321.06;;;-2.71;88.02
44198;BME280;30157;55.512;37.764;2023-01-31T07:24:04;98294.19;;;-2.96;87.79
44198;BME280;30157;55.512;37.764;2023-01-31T07:26:30;98307.00;;;-2.91;87.71
44198;BME280;30157;55.512;37.764;2023-01-31T07:28:55;98307.00;;;-2.91;88.02
44198;BME280;30157;55.512;37.764;2023-01-31T07:31:21;98306.25;;;-2.87;88.18
44198;BME280;30157;55.512;37.764;2023-01-31T07:33:47;98290.09;;;-2.91;87.95
44198;BME280;30157;55.512;37.764;2023-01-31T07:36:15;98226.66;;;-3.24;87.82
44198;BME280;30157;55.512;37.764;2023-01-31T07:38:41;98354.28;;;-2.61;87.77
44198;BME280;30157;55.512;37.764;2023-01-31T07:41:08;98355.19;;;-2.59;87.88
44198;BME280;30157;55.512;37.764;2023-01-31T07:43:35;98350.19;;;-2.55;87.53
44198;BME280;30157;55.512;37.764;2023-01-31T07:46:01;98341.75;;;-2.54;87.53
44198;BME280;30157;55.512;37.764;2023-01-31T07:48:30;98213.09;;;-3.25;87.40
44198;BME280;30157;55.512;37.764;2023-01-31T07:50:59;98224.38;;;-3.13;87.13
44198;BME280;30157;55.512;37.764;2023-01-31T07:53:28;98240.53;;;-3.10;86.86
44198;BME280;30157;55.512;37.764;2023-01-31T07:55:54;98341.81;;;-2.50;87.14
44198;BME280;30157;55.512;37.764;2023-01-31T07:58:20;98349.59;;;-2.44;87.35
44198;BME280;30157;55.512;37.764;2023-01-31T08:00:46;98365.00;;;-2.38;88.01
44198;BME280;30157;55.512;37.764;2023-01-31T08:03:30;98370.94;;;-2.38;87.78
44198;BME280;30157;55.512;37.764;2023-01-31T08:06:01;98307.28;;;-2.79;87.63
44198;BME280;30157;55.512;37.764;2023-01-31T08:08:27;98382.13;;;-2.29;87.68
44198;BME280;30157;55.512;37.764;2023-01-31T08:10:53;98235.50;;;-3.08;87.41
44198;BME280;30157;55.512;37.764;2023-01-31T08:13:18;98285.91;;;-2.89;86.98
44198;BME280;30157;55.512;37.764;2023-01-31T08:15:44;98365.91;;;-2.34;87.29
44198;BME280;30157;55.512;37.764;2023-01-31T08:18:10;98382.44;;;-2.15;86.88
44198;BME280;30157;55.512;37.764;2023-01-31T08:20:37;98387.59;;;-2.14;86.78
44198;BME280;30157;55.512;37.764;2023-01-31T08:23:03;98355.06;;;-2.29;86.53
44198;BME280;30157;55.512;37.764;2023-01-31T08:25:29;98366.34;;;-2.16;86.92
44198;BME280;30157;55.512;37.764;2023-01-31T08:27:58;98370.56;;;-2.18;86.49
44198;BME280;30157;55.512;37.764;2023-01-31T08:30:23;98380.91;;;-2.09;86.55
44198;BME280;30157;55.512;37.764;2023-01-31T08:32:49;98384.31;;;-2.08;86.53
44198;BME280;30157;55.512;37.764;2023-01-31T08:35:15;98370.06;;;-2.01;86.08
44198;BME280;30157;55.512;37.764;2023-01-31T08:37:40;98276.53;;;-2.55;85.61
44198;BME280;30157;55.512;37.764;2023-01-31T08:40:06;98386.38;;;-1.92;85.97
44198;BME280;30157;55.512;37.764;2023-01-31T08:42:32;98404.25;;;-1.89;85.42
44198;BME280;30157;55.512;37.764;2023-01-31T08:44:58;98381.97;;;-2.00;86.02
44198;BME280;30157;55.512;37.764;2023-01-31T08:47:24;98379.34;;;-2.02;86.13
44198;BME280;30157;55.512;37.764;2023-01-31T08:49:49;98380.34;;;-1.95;86.18
44198;BME280;30157;55.512;37.764;2023-01-31T08:52:15;98378.78;;;-1.90;85.85
44198;BME280;30157;55.512;37.764;2023-01-31T08:54:43;98379.59;;;-1.91;85.69
44198;BME280;30157;55.512;37.764;2023-01-31T08:57:08;98280.81;;;-2.52;85.67
44198;BME280;30157;55.512;37.764;2023-01-31T08:59:34;98392.59;;;-1.79;85.72
44198;BME280;30157;55.512;37.764;2023-01-31T09:02:00;98341.91;;;-2.11;85.23
44198;BME280;30157;55.512;37.764;2023-01-31T09:04:26;98392.59;;;-1.80;85.12
44198;BME280;30157;55.512;37.764;2023-01-31T09:06:53;98312.56;;;-2.34;85.44
44198;BME280;30157;55.512;37.764;2023-01-31T09:09:19;98388.28;;;-1.83;85.29
44198;BME280;30157;55.512;37.764;2023-01-31T09:11:45;98379.56;;;-1.93;85.52
44198;BME280;30157;55.512;37.764;2023-01-31T09:14:10;98275.81;;;-2.49;85.57
44198;BME280;30157;55.512;37.764;2023-01-31T09:16:36;98281.72;;;-2.50;85.31
44198;BME280;30157;55.512;37.764;2023-01-31T09:19:02;98116.34;;;-3.39;85.20
44198;BME280;30157;55.512;37.764;2023-01-31T09:21:28;98292.41;;;-2.25;85.36
44198;BME280;30157;55.512;37.764;2023-01-31T09:23:59;98388.44;;;-1.74;85.37
44198;BME280;30157;55.512;37.764;2023-01-31T09:26:27;98324.06;;;-2.12;85.68
44198;BME280;30157;55.512;37.764;2023-01-31T09:28:52;98336.66;;;-2.17;85.60
44198;BME280;30157;55.512;37.764;2023-01-31T09:31:19;98390.31;;;-1.66;85.22
44198;BME280;30157;55.512;37.764;2023-01-31T09:33:45;98373.28;;;-1.71;84.88
44198;BME280;30157;55.512;37.764;2023-01-31T09:36:16;98386.22;;;-1.60;84.62
44198;BME280;30157;55.512;37.764;2023-01-31T09:38:42;98259.22;;;-2.33;84.89
44198;BME280;30157;55.512;37.764;2023-01-31T09:41:36;98389.22;;;-1.37;84.42
44198;BME280;30157;55.512;37.764;2023-01-31T09:46:39;98360.09;;;-1.51;84.15
44198;BME280;30157;55.512;37.764;2023-01-31T09:49:09;98323.13;;;-1.76;84.13
44198;BME280;30157;55.512;37.764;2023-01-31T09:51:39;98358.44;;;-1.49;84.00
44198;BME280;30157;55.512;37.764;2023-01-31T09:54:22;98357.53;;;-1.53;84.03
44198;BME280;30157;55.512;37.764;2023-01-31T09:56:58;98296.59;;;-1.88;84.01
44198;BME280;30157;55.512;37.764;2023-01-31T09:59:40;98304.38;;;-1.81;83.83
44198;BME280;30157;55.512;37.764;2023-01-31T10:02:28;98384.97;;;-1.38;83.97
44198;BME280;30157;55.512;37.764;2023-01-31T10:07:58;98391.56;;;-1.47;83.88
44198;BME280;30157;55.512;37.764;2023-01-31T10:13:04;98279.00;;;-1.77;83.43
44198;BME280;30157;55.512;37.764;2023-01-31T10:15:54;98382.81;;;-1.17;83.29
44198;BME280;30157;55.512;37.764;2023-01-31T10:18:27;98385.44;;;-1.14;83.13
44198;BME280;30157;55.512;37.764;2023-01-31T10:21:05;98398.16;;;-1.14;82.78
44198;BME280;30157;55.512;37.764;2023-01-31T10:23:48;98380.97;;;-1.25;82.90
44198;BME280;30157;55.512;37.764;2023-01-31T10:26:44;98394.06;;;-1.06;83.22
44198;BME280;30157;55.512;37.764;2023-01-31T10:29:32;98189.72;;;-2.35;82.95
44198;BME280;30157;55.512;37.764;2023-01-31T10:32:03;98383.72;;;-1.14;83.07
44198;BME280;30157;55.512;37.764;2023-01-31T10:34:40;98407.59;;;-1.09;83.29
44198;BME280;30157;55.512;37.764;2023-01-31T10:37:12;98409.19;;;-1.14;83.29
44198;BME280;30157;55.512;37.764;2023-01-31T10:42:31;98411.56;;;-1.23;83.54
44198;BME280;30157;55.512;37.764;2023-01-31T10:50:18;98411.56;;;-1.23;84.03
44198;BME280;30157;55.512;37.764;2023-01-31T10:52:52;98396.88;;;-1.35;83.88
44198;BME280;30157;55.512;37.764;2023-01-31T10:58:12;98300.69;;;-1.94;83.94
44198;BME280;30157;55.512;37.764;2023-01-31T11:00:42;98316.28;;;-1.80;84.08
44198;BME280;30157;55.512;37.764;2023-01-31T11:03:10;98417.50;;;-1.23;84.15
44198;BME280;30157;55.512;37.764;2023-01-31T11:05:45;98415.88;;;-1.19;83.79
44198;BME280;30157;55.512;37.764;2023-01-31T11:10:51;98380.66;;;-1.40;83.95
44198;BME280;30157;55.512;37.764;2023-01-31T11:13:18;98402.28;;;-1.21;83.56
44198;BME280;30157;55.512;37.764;2023-01-31T11:15:45;98407.22;;;-1.27;83.18
44198;BME280;30157;55.512;37.764;2023-01-31T11:18:34;98395.25;;;-1.33;83.75
44198;BME280;30157;55.512;37.764;2023-01-31T11:21:02;98319.63;;;-1.81;83.71
44198;BME280;30157;55.512;37.764;2023-01-31T11:23:31;98316.34;;;-1.76;83.73
44198;BME280;30157;55.512;37.764;2023-01-31T11:26:00;98397.00;;;-1.30;83.61
44198;BME280;30157;55.512;37.764;2023-01-31T11:28:37;98300.84;;;-1.88;83.42
44198;BME280;30157;55.512;37.764;2023-01-31T11:31:06;98415.09;;;-1.15;83.59
44198;BME280;30157;55.512;37.764;2023-01-31T11:33:59;98413.31;;;-1.21;83.59
44198;BME280;30157;55.512;37.764;2023-01-31T11:36:25;98409.84;;;-1.23;83.38
44198;BME280;30157;55.512;37.764;2023-01-31T11:38:55;98371.19;;;-1.47;83.52
44198;BME280;30157;55.512;37.764;2023-01-31T11:41:34;98414.06;;;-1.25;83.76
44198;BME280;30157;55.512;37.764;2023-01-31T11:44:13;98426.88;;;-1.20;83.60
44198;BME280;30157;55.512;37.764;2023-01-31T11:46:57;98414.81;;;-1.30;83.64
44198;BME280;30157;55.512;37.764;2023-01-31T11:49:50;98421.59;;;-1.31;83.58
44198;BME280;30157;55.512;37.764;2023-01-31T11:52:19;98326.13;;;-1.94;83.81
44198;BME280;30157;55.512;37.764;2023-01-31T11:54:54;98429.09;;;-1.39;84.00
44198;BME280;30157;55.512;37.764;2023-01-31T11:57:26;98413.66;;;-1.45;84.51
44198;BME280;30157;55.512;37.764;2023-01-31T11:59:56;98463.09;;;-1.33;84.11
44198;BME280;30157;55.512;37.764;2023-01-31T12:02:38;98431.56;;;-1.40;83.93
44198;BME280;30157;55.512;37.764;2023-01-31T12:05:10;98158.66;;;-3.02;83.71
44198;BME280;30157;55.512;37.764;2023-01-31T12:07:46;98458.19;;;-1.26;83.77
44198;BME280;30157;55.512;37.764;2023-01-31T12:12:58;98392.19;;;-1.58;83.42
44198;BME280;30157;55.512;37.764;2023-01-31T12:15:25;98354.44;;;-1.80;83.69
44198;BME280;30157;55.512;37.764;2023-01-31T12:17:53;98445.47;;;-1.24;83.82
44198;BME280;30157;55.512;37.764;2023-01-31T12:20:31;98440.19;;;-1.33;83.86
44198;BME280;30157;55.512;37.764;2023-01-31T12:23:10;98371.63;;;-1.67;83.33
44198;BME280;30157;55.512;37.764;2023-01-31T12:31:29;98431.44;;;-1.48;83.72
44198;BME280;30157;55.512;37.764;2023-01-31T12:44:45;98456.97;;;-1.43;84.21
44198;BME280;30157;55.512;37.764;2023-01-31T12:55:35;98468.13;;;-1.37;84.09
44198;BME280;30157;55.512;37.764;2023-01-31T13:06:30;98402.63;;;-1.85;84.26
44198;BME280;30157;55.512;37.764;2023-01-31T13:09:01;98471.50;;;-1.38;84.31
44198;BME280;30157;55.512;37.764;2023-01-31T13:11:41;98363.09;;;-2.10;84.04
44198;BME280;30157;55.512;37.764;2023-01-31T13:14:16;98401.03;;;-1.81;84.26
44198;BME280;30157;55.512;37.764;2023-01-31T13:16:45;98466.31;;;-1.44;84.29
44198;BME280;30157;55.512;37.764;2023-01-31T13:19:17;98492.94;;;-1.28;84.43
44198;BME280;30157;55.512;37.764;2023-01-31T13:21:48;98503.91;;;-1.30;84.70
44198;BME280;30157;55.512;37.764;2023-01-31T13:24:43;98499.69;;;-1.30;84.44
44198;BME280;30157;55.512;37.764;2023-01-31T13:27:17;98492.84;;;-1.32;84.02
44198;BME280;30157;55.512;37.764;2023-01-31T13:29:50;98492.03;;;-1.30;84.54
44198;BME280;30157;55.512;37.764;2023-01-31T13:32:24;98285.06;;;-2.53;84.13
44198;BME280;30157;55.512;37.764;2023-01-31T13:35:29;98493.75;;;-1.29;84.31
44198;BME280;30157;55.512;37.764;2023-01-31T13:37:59;98460.09;;;-1.55;84.34
44198;BME280;30157;55.512;37.764;2023-01-31T13:40:31;98458.34;;;-1.58;84.49
44198;BME280;30157;55.512;37.764;2023-01-31T13:43:02;98453.34;;;-1.55;84.60
44198;BME280;30157;55.512;37.764;2023-01-31T13:45:35;98433.63;;;-1.63;84.34
44198;BME280;30157;55.512;37.764;2023-01-31T13:48:13;98471.22;;;-1.52;84.79
44198;BME280;30157;55.512;37.764;2023-01-31T13:50:50;98480.78;;;-1.41;84.68
44198;BME280;30157;55.512;37.764;2023-01-31T13:53:21;98479.09;;;-1.39;84.58
44198;BME280;30157;55.512;37.764;2023-01-31T13:55:49;98369.13;;;-2.05;84.06
44198;BME280;30157;55.512;37.764;2023-01-31T13:58:20;98472.16;;;-1.48;84.46
44198;BME280;30157;55.512;37.764;2023-01-31T14:01:06;98437.69;;;-1.72;84.41
44198;BME280;30157;55.512;37.764;2023-01-31T14:09:42;98267.28;;;-2.89;84.40
44198;BME280;30157;55.512;37.764;2023-01-31T14:22:22;98512.38;;;-1.70;84.92
44198;BME280;30157;55.512;37.764;2023-01-31T14:32:39;98516.00;;;-1.60;85.20
44198;BME280;30157;55.512;37.764;2023-01-31T14:37:44;98532.38;;;-1.47;85.26
44198;BME280;30157;55.512;37.764;2023-01-31T14:40:26;98455.06;;;-1.90;84.66
44198;BME280;30157;55.512;37.764;2023-01-31T14:45:42;98435.41;;;-1.99;84.83
44198;BME280;30157;55.512;37.764;2023-01-31T14:48:19;98514.41;;;-1.55;85.30
44198;BME280;30157;55.512;37.764;2023-01-31T14:51:24;98530.81;;;-1.42;84.78
44198;BME280;30157;55.512;37.764;2023-01-31T15:01:56;98479.72;;;-1.88;85.15
44198;BME280;30157;55.512;37.764;2023-01-31T15:04:23;98514.09;;;-1.69;85.56
44198;BME280;30157;55.512;37.764;2023-01-31T15:06:52;98546.03;;;-1.45;85.23